Time;durP1;ratioP1;P1;durP2;ratioP2;P2;SDS_P1;SDS_P2;PMS_P1;PMS_P2;Temp;Humidity;BMP_temperature;BMP_pressure;BME280_temperature;BME280_humidity;BME280_pressure;Samples;Min_cycle;Max_cycle;Signal;HPM_P1;HPM_P2
2022/08/09 00:01:56;;;;;;;5.50;5.00;;;;;;;18.94;60.33;102386.75;5081228;28;20169;-65
2022/08/09 00:04:22;;;;;;;7.53;5.33;;;;;;;18.88;60.68;102388.47;5081950;28;20168;-65
2022/08/09 00:06:47;;;;;;;5.37;4.67;;;;;;;18.83;60.71;102391.06;5101235;28;20179;-63
2022/08/09 00:09:14;;;;;;;9.77;6.90;;;;;;;18.74;60.93;102391.94;5101326;28;20176;-64
2022/08/09 00:11:41;;;;;;;5.57;4.77;;;;;;;18.75;61.02;102393.69;5100725;28;20164;-64
2022/08/09 00:14:06;;;;;;;8.90;8.00;;;;;;;18.92;60.22;102385.84;5100946;28;20485;-64
2022/08/09 00:16:35;;;;;;;5.10;4.70;;;;;;;18.79;60.66;102387.53;5100352;28;20553;-64
2022/08/09 00:19:01;;;;;;;4.33;3.80;;;;;;;18.56;61.69;102381.34;5101446;28;20165;-65
2022/08/09 00:21:26;;;;;;;6.30;5.70;;;;;;;18.45;61.91;102387.44;5100959;28;20450;-66
2022/08/09 00:23:52;;;;;;;4.90;4.50;;;;;;;18.41;61.78;102390.97;5100739;28;20164;-66
2022/08/09 00:26:18;;;;;;;4.50;4.10;;;;;;;18.62;61.11;102384.88;5101187;28;20160;-67
2022/08/09 00:28:43;;;;;;;5.93;5.33;;;;;;;18.62;61.29;102386.66;5100828;28;20533;-66
2022/08/09 00:31:08;;;;;;;5.07;4.67;;;;;;;18.62;61.08;102394.56;5100826;28;20404;-66
2022/08/09 00:33:38;;;;;;;3.90;3.60;;;;;;;18.34;61.66;102394.47;5100323;28;20157;-66
2022/08/09 00:36:04;;;;;;;4.40;4.10;;;;;;;18.47;61.55;102393.63;5100676;28;20199;-66
2022/08/09 00:38:29;;;;;;;5.13;4.57;;;;;;;18.39;61.76;102398.00;5100562;28;20396;-65
2022/08/09 00:40:54;;;;;;;4.60;4.10;;;;;;;18.40;61.73;102401.53;5100811;28;20556;-65
2022/08/09 00:43:21;;;;;;;9.03;7.70;;;;;;;18.37;61.80;102406.81;5100278;28;20242;-64
2022/08/09 00:45:49;;;;;;;5.13;4.70;;;;;;;18.06;62.28;102404.88;5100743;28;20545;-66
2022/08/09 00:48:14;;;;;;;5.00;4.43;;;;;;;18.47;61.46;102406.84;5100965;28;20388;-66
2022/08/09 00:50:40;;;;;;;5.90;5.30;;;;;;;18.45;61.63;102403.28;5099582;28;20855;-65
2022/08/09 00:53:06;;;;;;;6.40;5.47;;;;;;;18.37;61.85;102404.16;5099430;28;20207;-65
2022/08/09 00:55:32;;;;;;;4.90;4.50;;;;;;;18.54;61.35;102399.81;5080418;28;20192;-66
2022/08/09 00:57:57;;;;;;;6.87;4.40;;;;;;;18.55;61.19;102391.03;5079831;28;20505;-67
2022/08/09 01:00:23;;;;;;;5.27;4.67;;;;;;;18.28;61.85;102407.63;5079904;28;20252;-67
2022/08/09 01:02:50;;;;;;;4.87;4.40;;;;;;;18.02;62.64;102395.19;5080172;28;20556;-67
2022/08/09 01:05:23;;;;;;;6.10;5.50;;;;;;;18.21;62.35;102401.44;5069592;28;20511;-66
2022/08/09 01:08:34;;;;;;;4.90;4.50;;;;;;;17.99;62.87;102401.34;5059135;28;20809;-66
2022/08/09 01:11:14;;;;;;;5.40;4.90;;;;;;;17.90;63.58;102413.56;5037145;28;20670;-67
2022/08/09 01:13:50;;;;;;;5.47;4.90;;;;;;;18.17;63.09;102400.56;5058957;28;20469;-65
2022/08/09 01:16:16;;;;;;;5.17;4.70;;;;;;;17.86;63.44;102399.50;5058805;28;20433;-65
2022/08/09 01:18:45;;;;;;;6.97;4.60;;;;;;;17.76;63.75;102401.16;5058731;28;20835;-64
2022/08/09 01:21:18;;;;;;;4.40;4.10;;;;;;;17.93;63.73;102408.38;5059149;28;20676;-65
2022/08/09 01:23:54;;;;;;;7.03;4.93;;;;;;;17.87;63.65;102409.16;5058667;28;20725;-67
2022/08/09 01:26:43;;;;;;;5.50;4.60;;;;;;;18.00;63.49;102400.47;5058684;28;20416;-66
2022/08/09 01:29:11;;;;;;;5.13;4.63;;;;;;;18.11;62.85;102397.88;5058596;28;20408;-65
2022/08/09 01:31:37;;;;;;;7.20;4.87;;;;;;;18.00;63.16;102396.97;5058611;28;20796;-65
2022/08/09 01:34:04;;;;;;;4.93;4.50;;;;;;;18.06;63.03;102386.41;5058393;28;20504;-65
2022/08/09 01:36:31;;;;;;;6.10;4.53;;;;;;;18.04;62.75;102385.53;5059605;28;20243;-65
2022/08/09 01:38:57;;;;;;;6.60;4.50;;;;;;;18.01;62.96;102396.09;5058291;28;20687;-65
2022/08/09 01:41:24;;;;;;;5.60;4.67;;;;;;;18.15;62.67;102390.88;5058431;28;20412;-64
2022/08/09 01:43:53;;;;;;;5.20;4.70;;;;;;;17.95;63.03;102389.00;5058703;28;20375;-65
2022/08/09 01:46:27;;;;;;;9.10;4.50;;;;;;;18.18;62.98;102391.78;5059103;28;20462;-65
2022/08/09 01:49:04;;;;;;;6.03;5.00;;;;;;;17.85;63.73;102401.22;5074855;28;20417;-64
2022/08/09 01:51:31;;;;;;;4.90;4.50;;;;;;;17.93;63.63;102390.78;5058152;28;20412;-65
2022/08/09 01:53:57;;;;;;;5.63;5.00;;;;;;;17.87;63.94;102397.72;5064701;28;20838;-64
2022/08/09 01:56:24;;;;;;;6.00;4.70;;;;;;;17.72;64.26;102393.25;5078011;28;20459;-65
2022/08/09 01:58:50;;;;;;;6.10;4.70;;;;;;;17.87;64.00;102400.38;5094999;28;20407;-65
2022/08/09 02:01:17;;;;;;;9.50;5.87;;;;;;;17.98;63.49;102403.97;5078417;28;20408;-64
2022/08/09 02:03:43;;;;;;;5.37;4.83;;;;;;;17.88;63.47;102399.50;5078456;28;20423;-65
2022/08/09 02:06:09;;;;;;;5.47;4.97;;;;;;;17.77;64.29;102404.72;5094296;28;20661;-65
2022/08/09 02:08:37;;;;;;;4.90;4.50;;;;;;;17.55;64.79;102406.31;5098579;28;20406;-65
2022/08/09 02:11:03;;;;;;;6.63;5.27;;;;;;;17.56;64.85;102401.03;5098031;28;20433;-65
2022/08/09 02:13:30;;;;;;;25.57;19.43;;;;;;;17.55;64.87;102394.03;5097867;28;20422;-65
2022/08/09 02:15:56;;;;;;;12.10;5.90;;;;;;;17.73;64.80;102397.66;5097417;28;20758;-65
2022/08/09 02:18:26;;;;;;;17.30;12.40;;;;;;;17.48;65.24;102408.91;5097849;28;20414;-66
2022/08/09 02:20:57;;;;;;;12.90;6.27;;;;;;;17.57;65.00;102394.03;5098688;28;20468;-66
2022/08/09 02:23:39;;;;;;;6.07;4.90;;;;;;;17.50;65.00;102401.00;5097819;28;20392;-66
2022/08/09 02:26:06;;;;;;;10.07;6.07;;;;;;;17.67;64.59;102406.38;5098620;28;20779;-66
2022/08/09 02:28:40;;;;;;;8.13;7.33;;;;;;;17.54;65.10;102401.91;5097878;28;20396;-65
2022/08/09 02:31:20;;;;;;;6.80;6.10;;;;;;;17.65;64.67;102401.09;5097695;28;20509;-65
2022/08/09 02:33:47;;;;;;;7.93;6.33;;;;;;;17.66;64.78;102402.00;5097582;28;20414;-65
2022/08/09 02:36:23;;;;;;;11.33;7.60;;;;;;;17.59;65.17;102402.81;5097732;28;20932;-66
2022/08/09 02:38:53;;;;;;;7.13;6.07;;;;;;;17.61;64.85;102409.00;5097647;28;20395;-65
2022/08/09 02:41:24;;;;;;;7.73;6.40;;;;;;;17.61;64.76;102403.72;5097692;28;20654;-66
2022/08/09 02:43:51;;;;;;;6.90;5.50;;;;;;;17.60;64.68;102412.50;5097479;28;20838;-66
2022/08/09 02:46:16;;;;;;;6.43;5.57;;;;;;;17.51;65.23;102403.66;5097554;28;20421;-67
2022/08/09 02:48:43;;;;;;;6.87;5.60;;;;;;;17.34;65.50;102407.91;5098756;28;20476;-66
2022/08/09 02:51:11;;;;;;;7.83;5.30;;;;;;;17.50;65.04;102406.28;5097565;28;20172;-65
2022/08/09 02:53:40;;;;;;;7.67;5.50;;;;;;;17.49;65.25;102402.78;5097185;28;20770;-65
2022/08/09 02:56:07;;;;;;;5.93;5.33;;;;;;;17.44;65.39;102401.84;5097718;28;20473;-66
2022/08/09 02:58:33;;;;;;;6.83;5.37;;;;;;;16.99;66.58;102395.31;5097283;28;20410;-65
2022/08/09 03:00:59;;;;;;;7.37;5.17;;;;;;;17.21;66.36;102400.75;5097266;28;20403;-66
2022/08/09 03:03:25;;;;;;;5.83;5.33;;;;;;;17.04;66.75;102401.50;5097576;28;20444;-65
2022/08/09 03:05:51;;;;;;;6.27;5.30;;;;;;;17.09;66.77;102405.06;5083019;28;20425;-66
2022/08/09 03:08:17;;;;;;;6.03;5.53;;;;;;;17.08;66.66;102402.41;5077002;28;20407;-67
2022/08/09 03:10:44;;;;;;;6.97;5.20;;;;;;;17.05;66.76;102408.53;5077667;28;20433;-66
2022/08/09 03:13:09;;;;;;;5.70;5.20;;;;;;;17.13;66.66;102404.22;5093647;28;20175;-64
2022/08/09 03:15:36;;;;;;;8.03;5.97;;;;;;;17.08;66.32;102408.56;5077580;28;20925;-65
2022/08/09 03:18:02;;;;;;;6.03;5.53;;;;;;;16.95;66.62;102402.31;5077264;28;20176;-66
2022/08/09 03:20:28;;;;;;;6.70;5.57;;;;;;;16.92;67.15;102407.53;5077528;28;20377;-66
2022/08/09 03:22:54;;;;;;;12.53;5.57;;;;;;;16.62;67.71;102405.44;5077469;28;20161;-65
2022/08/09 03:25:19;;;;;;;8.47;5.30;;;;;;;16.74;67.72;102404.69;5077396;28;20188;-65
2022/08/09 03:27:50;;;;;;;5.47;4.97;;;;;;;16.60;67.72;102415.94;5079053;28;20255;-65
2022/08/09 03:30:16;;;;;;;6.03;5.43;;;;;;;16.60;68.07;102407.16;5081181;28;20210;-66
2022/08/09 03:32:41;;;;;;;8.27;6.10;;;;;;;16.87;67.76;102408.31;5081900;28;20422;-65
2022/08/09 03:35:10;;;;;;;6.30;5.70;;;;;;;16.67;68.16;102409.88;5081455;28;20215;-65
2022/08/09 03:37:37;;;;;;;10.70;6.03;;;;;;;16.72;68.09;102409.03;5081533;28;20199;-66
2022/08/09 03:40:03;;;;;;;6.60;5.60;;;;;;;16.58;68.25;102417.66;5081945;28;20392;-66
2022/08/09 03:42:28;;;;;;;6.90;6.20;;;;;;;16.60;68.43;102417.69;5080653;28;20394;-66
2022/08/09 03:44:54;;;;;;;7.10;6.50;;;;;;;16.57;68.44;102415.03;5081208;28;20414;-65
2022/08/09 03:47:19;;;;;;;8.60;5.90;;;;;;;16.68;68.53;102416.00;5081819;28;20169;-67
2022/08/09 03:49:45;;;;;;;6.47;5.87;;;;;;;16.53;68.65;102423.75;5081144;28;20173;-66
2022/08/09 03:52:12;;;;;;;6.67;6.07;;;;;;;16.47;68.92;102419.31;5081263;28;20165;-66
2022/08/09 03:54:39;;;;;;;7.20;6.10;;;;;;;16.64;68.51;102414.22;5080212;28;20813;-65
2022/08/09 03:57:10;;;;;;;6.30;5.80;;;;;;;16.59;68.60;102418.53;5080231;28;20514;-66
2022/08/09 03:59:35;;;;;;;6.57;5.97;;;;;;;16.57;68.72;102423.78;5097414;28;20426;-67
2022/08/09 04:02:01;;;;;;;7.40;6.50;;;;;;;16.64;68.26;102420.38;5080800;28;20775;-66
2022/08/09 04:04:27;;;;;;;7.10;6.20;;;;;;;16.66;68.93;102410.75;5082939;28;20169;-65
2022/08/09 04:06:53;;;;;;;10.57;6.13;;;;;;;16.81;68.05;102419.69;5102075;28;20470;-65
2022/08/09 04:09:18;;;;;;;6.80;6.20;;;;;;;16.72;67.87;102420.44;5100365;28;20418;-65
2022/08/09 04:12:10;;;;;;;7.83;6.90;;;;;;;16.88;68.00;102415.38;5101193;28;20168;-66
2022/08/09 04:14:39;;;;;;;8.13;6.07;;;;;;;16.95;67.93;102420.75;5100851;28;20172;-64
2022/08/09 04:17:05;;;;;;;9.33;6.70;;;;;;;16.88;68.14;102425.91;5100265;28;20432;-64
2022/08/09 04:19:30;;;;;;;7.77;6.27;;;;;;;16.85;67.99;102426.75;5101004;28;20911;-66
2022/08/09 04:21:56;;;;;;;7.77;6.83;;;;;;;17.09;67.54;102422.59;5101094;28;20406;-66
2022/08/09 04:24:21;;;;;;;7.87;6.27;;;;;;;16.90;68.29;102419.81;5101150;28;20542;-64
2022/08/09 04:26:47;;;;;;;9.23;7.03;;;;;;;16.91;67.93;102420.69;5100864;28;20175;-66
2022/08/09 04:29:12;;;;;;;7.57;6.63;;;;;;;17.21;67.08;102416.56;5100608;28;20593;-65
2022/08/09 04:31:37;;;;;;;7.90;6.47;;;;;;;18.59;63.46;102415.66;5101043;28;20243;-65
2022/08/09 04:34:03;;;;;;;6.80;6.20;;;;;;;19.78;59.29;102414.03;5100605;28;20421;-64
2022/08/09 04:36:30;;;;;;;6.83;5.83;;;;;;;20.12;57.35;102416.59;5100514;28;20269;-65
2022/08/09 04:39:00;;;;;;;7.70;7.00;;;;;;;20.21;57.09;102414.81;5100241;28;20217;-65
2022/08/09 04:41:26;;;;;;;6.50;5.90;;;;;;;20.88;54.70;102410.06;5100467;28;20395;-65
2022/08/09 04:43:52;;;;;;;9.10;5.87;;;;;;;21.73;52.16;102415.59;5100483;28;20655;-65
2022/08/09 04:46:18;;;;;;;6.40;5.77;;;;;;;21.45;53.04;102421.13;5101082;28;20453;-66
2022/08/09 04:48:43;;;;;;;5.87;5.37;;;;;;;22.31;50.84;102418.44;5100476;28;20191;-66
2022/08/09 04:51:09;;;;;;;8.00;5.50;;;;;;;21.96;51.95;102423.28;5100352;28;20190;-66
2022/08/09 04:53:34;;;;;;;8.13;5.57;;;;;;;22.34;50.78;102421.09;5100405;28;20216;-64
2022/08/09 04:55:59;;;;;;;7.13;5.57;;;;;;;22.08;50.96;102413.41;5099483;28;20200;-66
2022/08/09 04:58:29;;;;;;;7.47;5.43;;;;;;;22.65;49.57;102418.91;5100289;28;20533;-67
2022/08/09 05:00:54;;;;;;;5.80;5.30;;;;;;;23.00;48.40;102420.19;5100135;28;20247;-66
2022/08/09 05:03:21;;;;;;;8.47;5.37;;;;;;;23.47;47.45;102419.44;5082335;28;20551;-65
2022/08/09 05:05:47;;;;;;;6.90;5.63;;;;;;;23.81;46.83;102422.34;5087033;28;20173;-64
2022/08/09 05:08:12;;;;;;;7.50;5.60;;;;;;;23.61;47.09;102421.84;5079724;28;20464;-65
2022/08/09 05:10:38;;;;;;;9.37;5.57;;;;;;;23.06;48.18;102432.50;5079551;28;20676;-65
2022/08/09 05:13:03;;;;;;;10.60;7.30;;;;;;;23.90;46.65;102428.44;5080053;28;20479;-65
2022/08/09 05:15:29;;;;;;;7.00;4.97;;;;;;;22.84;48.61;102424.84;5079314;28;20226;-65
2022/08/09 05:17:54;;;;;;;9.23;5.67;;;;;;;21.90;51.64;102446.38;5079589;28;20430;-65
2022/08/09 05:20:20;;;;;;;7.03;5.90;;;;;;;20.58;55.78;102451.72;5080044;28;20240;-65
2022/08/09 05:22:45;;;;;;;8.13;6.20;;;;;;;20.03;56.97;102454.56;5079483;28;20173;-65
2022/08/09 05:25:11;;;;;;;7.83;6.70;;;;;;;19.47;58.80;102459.03;5079362;28;20438;-65
2022/08/09 05:27:36;;;;;;;8.13;6.03;;;;;;;19.55;59.10;102460.78;5079872;28;20533;-65
2022/08/09 05:30:02;;;;;;;7.70;7.00;;;;;;;20.72;56.19;102455.22;5078533;28;20425;-64
2022/08/09 05:32:27;;;;;;;7.57;5.77;;;;;;;22.36;51.60;102448.53;5079197;28;20169;-65
2022/08/09 05:34:53;;;;;;;6.23;5.60;;;;;;;23.27;48.12;102455.22;5079618;28;20533;-65
2022/08/09 05:37:18;;;;;;;9.00;5.53;;;;;;;23.44;48.50;102446.97;5079377;28;20211;-64
2022/08/09 05:39:44;;;;;;;9.40;5.47;;;;;;;25.15;43.76;102437.25;5079246;28;20247;-64
2022/08/09 05:42:13;;;;;;;7.10;5.67;;;;;;;24.73;44.44;102442.72;5079639;28;20173;-64
2022/08/09 05:44:38;;;;;;;6.83;5.43;;;;;;;26.20;42.16;102434.50;5078979;28;20164;-66
2022/08/09 05:47:04;;;;;;;9.20;5.00;;;;;;;25.52;42.62;102439.03;5079054;28;20464;-66
2022/08/09 05:49:29;;;;;;;7.03;5.00;;;;;;;26.37;41.29;102436.69;5079445;28;20562;-66
2022/08/09 05:51:54;;;;;;;8.43;5.70;;;;;;;27.05;39.70;102436.41;5079128;28;20173;-66
2022/08/09 05:54:20;;;;;;;6.47;5.30;;;;;;;28.92;36.70;102432.31;5078788;28;20597;-66
2022/08/09 05:56:45;;;;;;;14.73;5.67;;;;;;;26.10;40.79;102450.88;5078928;28;20241;-66
2022/08/09 05:59:10;;;;;;;7.30;4.50;;;;;;;27.38;38.91;102452.28;5078637;28;20184;-65
2022/08/09 06:01:36;;;;;;;8.00;4.83;;;;;;;27.57;38.70;102452.53;5078640;28;20218;-65
2022/08/09 06:04:01;;;;;;;6.27;5.10;;;;;;;26.68;40.04;102453.59;5079148;28;20164;-64
2022/08/09 06:06:27;;;;;;;5.93;5.30;;;;;;;26.52;40.78;102464.78;5097813;28;20432;-64
2022/08/09 06:08:52;;;;;;;12.50;7.73;;;;;;;26.34;40.91;102466.19;5098984;28;20280;-66
2022/08/09 06:11:18;;;;;;;7.20;5.07;;;;;;;27.28;39.16;102472.25;5099131;28;20183;-66
2022/08/09 06:13:44;;;;;;;7.53;4.77;;;;;;;28.53;36.78;102457.97;5098638;28;20169;-67
2022/08/09 06:16:09;;;;;;;5.40;4.60;;;;;;;27.34;39.02;102461.34;5098759;28;20196;-67
2022/08/09 06:18:35;;;;;;;5.30;4.37;;;;;;;28.01;37.90;102463.50;5099043;28;20165;-66
2022/08/09 06:21:01;;;;;;;5.80;4.63;;;;;;;26.99;40.07;102471.41;5098740;28;20197;-66
2022/08/09 06:23:29;;;;;;;5.03;4.50;;;;;;;27.89;37.51;102467.47;5098539;28;20744;-65
2022/08/09 06:25:54;;;;;;;6.70;4.40;;;;;;;29.30;36.13;102461.22;5098726;28;20160;-65
2022/08/09 06:28:19;;;;;;;8.40;4.70;;;;;;;29.38;35.62;102464.47;5098645;28;20425;-65
2022/08/09 06:30:45;;;;;;;12.33;4.50;;;;;;;28.76;36.46;102458.91;5098696;28;20492;-66
2022/08/09 06:33:10;;;;;;;9.97;4.37;;;;;;;28.95;36.62;102464.38;5098858;28;20221;-66
2022/08/09 06:35:36;;;;;;;5.23;4.47;;;;;;;27.36;38.78;102475.53;5097598;28;20193;-66
2022/08/09 06:38:01;;;;;;;4.73;4.23;;;;;;;27.36;39.72;102479.13;5098446;28;20176;-65
2022/08/09 06:40:27;;;;;;;7.30;4.00;;;;;;;28.64;36.72;102470.13;5098647;28;20170;-65
2022/08/09 06:42:52;;;;;;;8.57;4.17;;;;;;;28.90;36.73;102477.13;5098374;28;20194;-66
2022/08/09 06:45:18;;;;;;;9.70;4.00;;;;;;;27.24;39.93;102484.88;5097701;28;20168;-66
2022/08/09 06:47:44;;;;;;;6.73;4.00;;;;;;;30.78;33.64;102475.22;5098870;28;20253;-65
2022/08/09 06:50:10;;;;;;;5.40;4.20;;;;;;;32.33;31.27;102476.31;5098283;28;20242;-65
2022/08/09 06:52:35;;;;;;;6.60;4.43;;;;;;;30.27;34.10;102482.97;5097383;28;20168;-65
2022/08/09 06:55:00;;;;;;;6.07;4.30;;;;;;;28.64;37.06;102483.53;5097751;28;20477;-65
2022/08/09 06:57:26;;;;;;;5.63;3.90;;;;;;;30.28;34.44;102479.34;5098154;28;20557;-66
2022/08/09 06:59:52;;;;;;;3.87;3.47;;;;;;;29.21;36.04;102482.13;5098367;28;20556;-66
2022/08/09 07:02:18;;;;;;;4.33;3.90;;;;;;;27.84;38.22;102488.19;5097872;28;20164;-66
2022/08/09 07:04:43;;;;;;;7.90;3.83;;;;;;;27.91;38.58;102494.22;5093302;28;20411;-66
2022/08/09 07:07:08;;;;;;;4.00;3.60;;;;;;;28.70;37.25;102488.69;5078335;28;20172;-68
2022/08/09 07:09:34;;;;;;;4.50;3.90;;;;;;;28.30;38.27;102492.84;5077694;28;20196;-67
2022/08/09 07:11:59;;;;;;;4.70;4.30;;;;;;;29.20;36.80;102485.75;5077793;28;20184;-67
2022/08/09 07:14:24;;;;;;;7.40;5.07;;;;;;;28.56;37.48;102482.00;5060316;28;20556;-66
2022/08/09 07:16:50;;;;;;;5.00;3.97;;;;;;;29.18;36.35;102492.13;5077573;28;20203;-67
2022/08/09 07:19:16;;;;;;;3.60;3.30;;;;;;;29.29;36.58;102487.19;5077784;28;20195;-66
2022/08/09 07:21:42;;;;;;;4.03;3.73;;;;;;;27.93;38.83;102499.50;5078099;28;20412;-67
2022/08/09 07:24:08;;;;;;;10.90;4.00;;;;;;;29.90;35.27;102494.47;5077490;28;20426;-67
2022/08/09 07:26:34;;;;;;;9.30;3.63;;;;;;;29.73;35.58;102489.78;5077599;28;20177;-67
2022/08/09 07:28:59;;;;;;;4.13;3.50;;;;;;;29.07;36.62;102500.63;5078098;28;20542;-67
2022/08/09 07:31:25;;;;;;;8.87;3.70;;;;;;;29.27;35.88;102491.78;5077756;28;20230;-67
2022/08/09 07:33:50;;;;;;;6.57;3.70;;;;;;;29.89;35.69;102490.03;5077662;28;20173;-66
2022/08/09 07:36:15;;;;;;;6.97;3.53;;;;;;;30.63;34.07;102490.31;5078061;28;20243;-66
2022/08/09 07:38:41;;;;;;;9.30;3.60;;;;;;;31.24;32.97;102491.81;5077437;28;20315;-67
2022/08/09 07:41:06;;;;;;;4.93;3.63;;;;;;;30.06;34.75;102491.94;5077560;28;20173;-68
2022/08/09 07:43:31;;;;;;;4.20;3.80;;;;;;;30.26;34.38;102495.56;5077943;28;20591;-67
2022/08/09 07:45:57;;;;;;;3.67;3.30;;;;;;;30.80;33.41;102487.66;5077601;28;20252;-68
2022/08/09 07:48:22;;;;;;;5.03;3.80;;;;;;;31.41;32.83;102497.22;5077390;28;20188;-67
2022/08/09 07:50:48;;;;;;;7.50;3.60;;;;;;;32.02;31.27;102483.34;5078096;28;20169;-66
2022/08/09 07:53:13;;;;;;;4.53;3.40;;;;;;;31.35;32.37;102499.38;5076977;28;20419;-66
2022/08/09 07:55:39;;;;;;;4.77;3.13;;;;;;;31.05;33.10;102502.66;5077219;28;20219;-66
2022/08/09 07:58:04;;;;;;;4.20;3.07;;;;;;;32.22;31.96;102496.66;5076977;28;20173;-65
2022/08/09 08:00:30;;;;;;;4.03;3.63;;;;;;;31.51;32.63;102500.31;5077194;28;20217;-65
2022/08/09 08:02:56;;;;;;;4.97;3.50;;;;;;;31.99;31.92;102495.19;5077399;28;20526;-66
2022/08/09 08:05:22;;;;;;;4.00;3.47;;;;;;;30.90;33.59;102505.13;5087474;28;20176;-66
2022/08/09 08:07:47;;;;;;;5.63;3.40;;;;;;;31.52;32.90;102506.59;5097365;28;20410;-67
2022/08/09 08:10:13;;;;;;;4.10;3.30;;;;;;;30.84;33.70;102505.41;5097362;28;20230;-66
2022/08/09 08:12:41;;;;;;;8.27;3.30;;;;;;;30.42;34.63;102509.19;5097799;28;20199;-65
2022/08/09 08:15:07;;;;;;;4.17;3.17;;;;;;;31.27;33.43;102501.56;5098917;28;20254;-67
2022/08/09 08:17:32;;;;;;;4.40;3.10;;;;;;;31.48;32.44;102502.31;5101141;28;20483;-67
2022/08/09 08:19:58;;;;;;;4.90;3.20;;;;;;;31.56;32.09;102508.19;5101417;28;20410;-67
2022/08/09 08:22:23;;;;;;;7.53;3.20;;;;;;;31.64;32.41;102505.13;5101086;28;20176;-65
2022/08/09 08:24:54;;;;;;;4.23;3.53;;;;;;;31.50;33.14;102509.38;5100800;28;20590;-65
2022/08/09 08:27:24;;;;;;;3.70;3.00;;;;;;;28.45;38.03;102511.03;5101472;28;20421;-66
2022/08/09 08:29:50;;;;;;;12.07;4.03;;;;;;;31.00;34.14;102502.84;5100852;28;20682;-66
2022/08/09 08:32:15;;;;;;;6.83;5.10;;;;;;;31.98;32.12;102497.97;5100802;28;20452;-65
2022/08/09 08:34:41;;;;;;;3.23;2.90;;;;;;;28.15;37.87;102511.25;5098673;28;20678;-66
2022/08/09 08:37:06;;;;;;;6.43;3.20;;;;;;;30.96;33.90;102497.69;5098399;28;20260;-66
2022/08/09 08:39:32;;;;;;;3.90;3.13;;;;;;;32.23;31.71;102500.22;5118006;28;20180;-65
2022/08/09 08:41:57;;;;;;;4.80;2.83;;;;;;;28.63;36.99;102513.94;5121418;28;20172;-66
2022/08/09 08:44:24;;;;;;;5.73;3.10;;;;;;;29.54;36.16;102500.47;5119546;28;20198;-67
2022/08/09 08:46:50;;;;;;;4.57;3.10;;;;;;;31.89;32.87;102497.50;5101841;28;20581;-66
2022/08/09 08:49:15;;;;;;;3.97;3.10;;;;;;;33.21;30.33;102495.63;5096433;28;20514;-63
2022/08/09 08:51:41;;;;;;;4.73;3.00;;;;;;;30.86;33.25;102511.59;5116460;28;20224;-66
2022/08/09 08:54:07;;;;;;;6.20;3.17;;;;;;;32.39;31.06;102503.84;5111631;28;20317;-68
2022/08/09 08:56:37;;;;;;;5.70;2.87;;;;;;;31.87;31.92;102502.09;5120765;28;20200;-67
2022/08/09 08:59:11;;;;;;;3.80;3.27;;;;;;;33.13;30.04;102496.09;5120355;28;20417;-67
2022/08/09 09:01:39;;;;;;;3.00;2.70;;;;;;;32.09;31.63;102506.34;5120575;28;20414;-66
2022/08/09 09:04:09;;;;;;;5.13;3.30;;;;;;;32.45;30.24;102507.13;5120153;28;20829;-66
2022/08/09 09:06:37;;;;;;;3.97;3.00;;;;;;;30.91;32.64;102509.56;5119856;28;20506;-66
2022/08/09 09:09:04;;;;;;;4.90;2.90;;;;;;;30.00;34.10;102504.78;5120929;28;20511;-66
2022/08/09 09:11:30;;;;;;;3.40;2.60;;;;;;;29.79;34.88;102507.47;5120433;28;20500;-66
2022/08/09 09:13:57;;;;;;;5.77;3.17;;;;;;;27.70;37.64;102517.31;5120049;28;20833;-66
2022/08/09 09:16:32;;;;;;;3.70;3.17;;;;;;;29.29;35.38;102505.13;5120512;28;20206;-65
2022/08/09 09:19:05;;;;;;;6.30;3.37;;;;;;;30.05;33.88;102500.97;5120077;28;20416;-66
2022/08/09 09:21:31;;;;;;;5.97;3.47;;;;;;;30.20;34.03;102504.78;5120121;28;20430;-66
2022/08/09 09:24:04;;;;;;;5.07;2.70;;;;;;;28.29;36.32;102518.78;5118808;28;20500;-66
2022/08/09 09:26:30;;;;;;;3.73;2.93;;;;;;;28.31;35.82;102510.69;5119762;28;20175;-66
2022/08/09 09:28:56;;;;;;;3.20;2.90;;;;;;;28.04;36.38;102511.63;5119605;28;20469;-66
2022/08/09 09:31:23;;;;;;;3.60;2.70;;;;;;;27.47;37.88;102524.31;5120028;28;20416;-66
2022/08/09 09:33:49;;;;;;;5.90;3.40;;;;;;;27.41;39.22;102529.84;5119792;28;20187;-65
2022/08/09 09:36:14;;;;;;;4.17;3.37;;;;;;;28.70;36.11;102512.84;5119431;28;20452;-66
2022/08/09 09:38:44;;;;;;;5.37;4.87;;;;;;;28.87;36.54;102515.69;5119831;28;20463;-66
2022/08/09 09:41:31;;;;;;;3.97;3.57;;;;;;;29.66;35.12;102511.63;5119666;28;20183;-65
2022/08/09 09:44:03;;;;;;;6.80;3.17;;;;;;;29.98;33.91;102504.00;5119627;28;20504;-66
2022/08/09 09:46:33;;;;;;;11.60;3.93;;;;;;;31.74;31.70;102498.28;5119722;28;20420;-66
2022/08/09 09:49:04;;;;;;;4.20;3.40;;;;;;;32.47;30.61;102499.81;5119646;28;20440;-66
2022/08/09 09:51:31;;;;;;;6.63;3.80;;;;;;;31.98;31.23;102506.06;5119481;28;20425;-67
2022/08/09 09:54:17;;;;;;;4.80;3.10;;;;;;;33.68;28.13;102505.47;5118870;28;20457;-66
2022/08/09 09:56:44;;;;;;;3.27;2.97;;;;;;;34.04;27.76;102508.72;5119113;28;20492;-66
2022/08/09 09:59:11;;;;;;;4.20;3.20;;;;;;;32.36;29.80;102506.69;5119591;28;20420;-67
2022/08/09 10:01:37;;;;;;;5.13;2.83;;;;;;;31.81;31.13;102512.31;5118672;28;20421;-66
2022/08/09 10:04:04;;;;;;;6.10;3.33;;;;;;;30.91;32.07;102520.31;5118849;28;20470;-66
2022/08/09 10:06:38;;;;;;;4.53;3.03;;;;;;;31.52;30.75;102515.56;5119510;28;20716;-66
2022/08/09 10:09:04;;;;;;;2.80;2.50;;;;;;;29.98;32.91;102512.06;5119489;28;20413;-66
2022/08/09 10:11:31;;;;;;;3.10;2.80;;;;;;;28.61;35.93;102508.66;5119427;28;20417;-65
2022/08/09 10:13:57;;;;;;;3.47;3.13;;;;;;;29.04;34.35;102514.19;5118802;28;20261;-66
2022/08/09 10:16:33;;;;;;;3.47;3.00;;;;;;;28.66;35.45;102517.44;5119334;28;20455;-65
2022/08/09 10:19:02;;;;;;;3.50;2.80;;;;;;;28.64;35.66;102513.06;5119036;28;20163;-66
2022/08/09 10:21:28;;;;;;;3.80;2.97;;;;;;;30.44;32.11;102507.28;5118771;28;20409;-65
2022/08/09 10:23:55;;;;;;;5.73;2.57;;;;;;;31.27;31.50;102504.28;5118283;28;20435;-65
2022/08/09 10:26:22;;;;;;;3.50;3.00;;;;;;;31.57;30.82;102505.41;5118903;27;20421;-66
2022/08/09 10:28:47;;;;;;;3.50;2.63;;;;;;;29.96;32.45;102509.47;5119290;28;20402;-66
2022/08/09 10:31:14;;;;;;;6.20;2.90;;;;;;;30.95;31.23;102510.28;5118642;28;20467;-68
2022/08/09 10:33:40;;;;;;;3.13;2.83;;;;;;;30.15;33.30;102503.25;5118599;28;20172;-66
2022/08/09 10:36:07;;;;;;;3.70;2.70;;;;;;;29.62;34.48;102493.88;5118884;28;20480;-67
2022/08/09 10:38:34;;;;;;;7.33;3.37;;;;;;;30.01;33.86;102491.31;5117987;28;20421;-67
2022/08/09 10:41:00;;;;;;;3.33;3.03;;;;;;;29.96;34.10;102493.31;5118671;28;20508;-67
2022/08/09 10:43:25;;;;;;;4.50;2.97;;;;;;;29.04;35.75;102495.38;5117877;28;20737;-67
2022/08/09 10:45:51;;;;;;;3.97;3.10;;;;;;;28.06;37.18;102498.19;5118707;28;20478;-67
2022/08/09 10:48:23;;;;;;;4.17;2.73;;;;;;;27.72;38.00;102505.59;5117988;27;20207;-66
2022/08/09 10:51:08;;;;;;;5.83;3.13;;;;;;;27.92;37.32;102500.47;5117992;28;20266;-66
2022/08/09 10:53:56;;;;;;;12.20;3.93;;;;;;;27.99;36.45;102502.84;5118061;28;20448;-66
2022/08/09 10:56:23;;;;;;;6.33;2.90;;;;;;;27.71;36.59;102503.84;5118260;28;20461;-66
2022/08/09 10:58:51;;;;;;;5.80;3.13;;;;;;;28.25;36.99;102500.19;5118137;28;20462;-67
2022/08/09 11:01:32;;;;;;;3.73;2.90;;;;;;;27.66;37.08;102507.63;5118313;28;20418;-69
2022/08/09 11:04:21;;;;;;;3.00;2.80;;;;;;;28.37;36.75;102497.94;5117990;28;20482;-67
2022/08/09 11:06:48;;;;;;;4.70;4.23;;;;;;;28.83;36.09;102497.97;5118582;28;20413;-67
2022/08/09 11:09:18;;;;;;;3.30;3.00;;;;;;;28.09;36.97;102494.50;5118226;28;20424;-71
2022/08/09 11:11:53;;;;;;;4.00;2.70;;;;;;;27.45;37.99;102502.03;5118267;28;20424;-72
2022/08/09 11:14:32;;;;;;;4.00;3.20;;;;;;;27.55;37.24;102499.94;5118310;28;20504;-72
2022/08/09 11:16:58;;;;;;;3.40;2.93;;;;;;;26.80;38.84;102496.06;5118415;28;20484;-72
2022/08/09 11:19:53;;;;;;;3.70;3.30;;;;;;;27.63;37.80;102496.97;5118432;28;20421;-70
2022/08/09 11:22:44;;;;;;;4.50;3.20;;;;;;;26.49;40.20;102493.41;5118170;28;20186;-72
2022/08/09 11:25:10;;;;;;;3.73;3.20;;;;;;;25.41;41.28;102491.84;5118382;28;20429;-69
2022/08/09 11:27:41;;;;;;;4.77;3.27;;;;;;;27.13;38.06;102484.31;5118269;28;20432;-72